Time;durP1;ratioP1;P1;durP2;ratioP2;P2;SDS_P1;SDS_P2;PMS_P1;PMS_P2;Temp;Humidity;BMP_temperature;BMP_pressure;BME280_temperature;BME280_humidity;BME280_pressure;Samples;Min_cycle;Max_cycle;Signal;HPM_P1;HPM_P2
2020/12/20 00:01:19;;;;;;;52.62;21.90;;;;;;;2.08;78.82;102244.72;1749380;81;21571;-74
2020/12/20 00:03:48;;;;;;;49.53;20.48;;;;;;;2.08;78.61;102248.59;1749137;81;21006;-75
2020/12/20 00:06:16;;;;;;;47.60;20.32;;;;;;;2.06;78.67;102241.27;1748875;81;20962;-75
2020/12/20 00:08:46;;;;;;;44.30;19.98;;;;;;;2.04;78.74;102243.42;1776064;80;21396;-74
2020/12/20 00:11:14;;;;;;;43.48;19.40;;;;;;;1.97;78.78;102243.84;1775964;80;21639;-74
2020/12/20 00:13:43;;;;;;;50.17;20.95;;;;;;;1.96;78.92;102239.98;1775929;80;21025;-75
2020/12/20 00:16:10;;;;;;;53.05;24.18;;;;;;;1.97;78.81;102239.95;1775911;80;21005;-75
2020/12/20 00:18:38;;;;;;;40.17;18.95;;;;;;;1.98;78.73;102235.64;1775827;80;21049;-75
2020/12/20 00:21:06;;;;;;;42.17;19.77;;;;;;;1.99;78.57;102239.97;1775892;80;20950;-75
2020/12/20 00:23:34;;;;;;;41.00;20.27;;;;;;;1.98;78.49;102245.58;1769714;81;21375;-74
2020/12/20 00:26:06;;;;;;;44.33;20.02;;;;;;;1.97;78.54;102234.78;1749966;79;20962;-74
2020/12/20 00:28:34;;;;;;;48.17;21.50;;;;;;;1.96;78.66;102236.95;1775856;80;20973;-76
2020/12/20 00:31:02;;;;;;;50.50;21.60;;;;;;;1.96;78.68;102240.83;1775911;80;21372;-76
2020/12/20 00:33:31;;;;;;;48.48;21.45;;;;;;;1.94;78.62;102239.97;1775783;80;20994;-75
2020/12/20 00:35:59;;;;;;;43.52;21.77;;;;;;;1.91;78.59;102245.11;1775722;80;21373;-75
2020/12/20 00:38:27;;;;;;;44.38;19.80;;;;;;;1.91;78.63;102239.94;1775765;80;21049;-74
2020/12/20 00:40:55;;;;;;;40.30;18.85;;;;;;;1.95;78.60;102244.27;1775761;80;20966;-74
2020/12/20 00:43:22;;;;;;;46.58;19.77;;;;;;;1.97;78.62;102241.69;1775834;80;20962;-74
2020/12/20 00:45:50;;;;;;;42.35;19.92;;;;;;;2.00;78.74;102247.75;1775868;80;21009;-75
2020/12/20 00:48:18;;;;;;;45.55;20.48;;;;;;;2.03;78.72;102246.88;1775785;80;21172;-76
2020/12/20 00:50:46;;;;;;;44.93;21.87;;;;;;;2.06;78.58;102250.76;1775752;80;20958;-74
2020/12/20 00:53:14;;;;;;;42.73;19.67;;;;;;;2.08;78.42;102247.30;1775701;80;21490;-75
2020/12/20 00:55:41;;;;;;;51.68;21.50;;;;;;;2.09;78.29;102248.20;1775727;80;20983;-76
2020/12/20 00:58:09;;;;;;;48.85;20.27;;;;;;;2.10;78.12;102248.61;1775868;80;20950;-75
2020/12/20 01:00:37;;;;;;;42.33;20.17;;;;;;;2.12;78.08;102246.89;1775620;80;21199;-74
2020/12/20 01:03:05;;;;;;;43.10;21.20;;;;;;;2.12;78.12;102245.59;1749990;81;20974;-75
2020/12/20 01:05:33;;;;;;;44.58;19.87;;;;;;;2.13;78.26;102244.72;1770157;79;21353;-74
2020/12/20 01:08:01;;;;;;;47.40;19.73;;;;;;;2.16;78.21;102244.75;1780223;80;21502;-75
2020/12/20 01:10:29;;;;;;;45.45;21.27;;;;;;;2.19;78.05;102246.03;1780303;80;20962;-76
2020/12/20 01:12:57;;;;;;;48.83;21.73;;;;;;;2.22;77.94;102247.75;1780304;80;22160;-74
2020/12/20 01:15:29;;;;;;;47.15;20.08;;;;;;;2.22;77.82;102242.58;1754458;80;21056;-75
2020/12/20 01:17:58;;;;;;;48.48;20.30;;;;;;;2.22;77.67;102242.17;1780396;80;21065;-75
2020/12/20 01:20:26;;;;;;;43.23;19.80;;;;;;;2.19;77.63;102247.33;1754329;80;20947;-76
2020/12/20 01:22:54;;;;;;;44.58;19.98;;;;;;;2.16;77.75;102250.36;1780301;80;21081;-74
2020/12/20 01:25:22;;;;;;;43.52;21.25;;;;;;;2.14;77.90;102255.52;1780287;80;21163;-75
2020/12/20 01:27:52;;;;;;;50.65;21.52;;;;;;;2.17;77.98;102255.95;1754339;80;21022;-76
2020/12/20 01:30:22;;;;;;;51.37;20.82;;;;;;;2.18;77.92;102250.79;1754457;80;20974;-75
2020/12/20 01:32:50;;;;;;;45.63;20.00;;;;;;;2.18;77.79;102254.67;1780190;80;21033;-75
2020/12/20 01:35:18;;;;;;;53.35;22.07;;;;;;;2.13;77.76;102252.92;1780253;80;21714;-75
2020/12/20 01:37:46;;;;;;;39.05;18.65;;;;;;;2.12;77.72;102253.80;1754493;80;21644;-75
2020/12/20 01:40:15;;;;;;;45.17;20.80;;;;;;;2.11;77.75;102250.77;1780184;80;20962;-75
2020/12/20 01:42:44;;;;;;;45.40;19.42;;;;;;;2.09;77.83;102249.48;1780314;80;20967;-74
2020/12/20 01:45:14;;;;;;;45.75;20.75;;;;;;;2.05;77.91;102252.48;1754427;80;21543;-75
2020/12/20 01:47:42;;;;;;;46.98;19.80;;;;;;;2.03;77.98;102249.47;1780276;80;20962;-76
2020/12/20 01:50:12;;;;;;;44.85;20.32;;;;;;;2.01;77.91;102253.34;1730547;80;21150;-76
2020/12/20 01:52:40;;;;;;;52.50;21.75;;;;;;;1.94;77.97;102246.44;1780413;80;21033;-76
2020/12/20 01:55:10;;;;;;;48.68;21.30;;;;;;;1.91;77.99;102245.55;1718380;80;21033;-76
2020/12/20 01:57:48;;;;;;;44.65;19.07;;;;;;;1.91;78.07;102246.41;1779061;80;21476;-74
2020/12/20 02:00:23;;;;;;;45.33;19.82;;;;;;;1.91;78.16;102248.99;1739105;80;20970;-75
2020/12/20 02:02:53;;;;;;;45.28;21.90;;;;;;;1.90;78.30;102251.16;1754437;80;21162;-75
2020/12/20 02:05:21;;;;;;;44.65;19.42;;;;;;;1.91;78.36;102254.16;1756721;80;21030;-73
2020/12/20 02:07:53;;;;;;;45.55;21.52;;;;;;;1.94;78.35;102252.90;1783907;79;21050;-75
2020/12/20 02:10:21;;;;;;;49.23;22.27;;;;;;;1.96;78.20;102256.36;1783057;79;21042;-72
2020/12/20 02:12:50;;;;;;;49.20;21.30;;;;;;;1.96;78.13;102256.36;1754483;80;21009;-74
2020/12/20 02:15:19;;;;;;;50.83;21.05;;;;;;;1.99;77.99;102260.23;1754421;80;21190;-74
2020/12/20 02:17:48;;;;;;;46.77;21.55;;;;;;;2.01;78.01;102259.80;1780043;80;21085;-75
2020/12/20 02:20:19;;;;;;;44.08;18.87;;;;;;;2.01;78.06;102260.25;1780023;80;21025;-76
2020/12/20 02:23:01;;;;;;;45.05;20.20;;;;;;;2.02;78.11;102262.84;1778347;77;20957;-83
2020/12/20 02:25:32;;;;;;;46.73;20.43;;;;;;;2.05;78.12;102264.13;1815738;77;21378;-84
2020/12/20 02:28:08;;;;;;;44.15;21.42;;;;;;;2.10;77.97;102268.45;1814200;77;21565;-83
2020/12/20 02:30:37;;;;;;;44.10;20.45;;;;;;;2.13;77.82;102267.16;1816430;77;20957;-84
2020/12/20 02:33:08;;;;;;;46.13;21.25;;;;;;;2.14;77.72;102272.34;1814585;77;20954;-83
2020/12/20 02:35:36;;;;;;;43.52;19.25;;;;;;;2.15;77.59;102272.77;1816549;77;21498;-83
2020/12/20 02:38:05;;;;;;;40.98;19.37;;;;;;;2.17;77.48;102272.34;1816549;77;21557;-83
2020/12/20 02:40:36;;;;;;;43.33;19.05;;;;;;;2.18;77.49;102270.20;1816485;77;20993;-82
2020/12/20 02:43:05;;;;;;;47.53;21.50;;;;;;;2.16;77.47;102271.92;1817117;77;21490;-84
2020/12/20 02:45:34;;;;;;;46.60;20.65;;;;;;;2.13;77.42;102269.31;1818496;77;21005;-83
2020/12/20 02:48:03;;;;;;;39.80;18.50;;;;;;;2.15;77.56;102271.47;1820147;77;20990;-81
2020/12/20 02:50:35;;;;;;;41.55;19.45;;;;;;;2.19;77.44;102267.17;1818877;77;20977;-83
2020/12/20 02:53:03;;;;;;;39.08;19.15;;;;;;;2.19;77.33;102271.91;1816795;77;21215;-80
2020/12/20 02:55:33;;;;;;;38.95;19.57;;;;;;;2.23;77.24;102277.53;1816306;77;21005;-81
2020/12/20 02:58:04;;;;;;;41.00;19.50;;;;;;;2.26;77.14;102281.84;1815312;77;20989;-81
2020/12/20 03:00:38;;;;;;;42.13;21.42;;;;;;;2.26;77.13;102277.96;1815360;77;21470;-83
2020/12/20 03:03:07;;;;;;;42.13;20.30;;;;;;;2.23;77.21;102281.41;1816448;77;20945;-82
2020/12/20 03:05:38;;;;;;;38.33;19.85;;;;;;;2.22;77.15;102274.52;1816413;77;21154;-83
2020/12/20 03:08:06;;;;;;;41.18;21.07;;;;;;;2.26;77.08;102273.64;1816056;77;20988;-82
2020/12/20 03:10:34;;;;;;;38.00;17.62;;;;;;;2.24;76.97;102276.66;1816370;77;21025;-82
2020/12/20 03:13:03;;;;;;;43.08;20.70;;;;;;;2.20;76.96;102276.65;1817265;77;21197;-80
2020/12/20 03:15:34;;;;;;;38.38;17.67;;;;;;;2.19;76.87;102278.82;1820257;77;21001;-81
2020/12/20 03:18:02;;;;;;;41.48;20.77;;;;;;;2.17;76.89;102278.80;1820062;77;21244;-82
2020/12/20 03:20:31;;;;;;;43.63;21.48;;;;;;;2.17;77.02;102270.19;1819910;77;21033;-82
2020/12/20 03:23:00;;;;;;;41.73;19.77;;;;;;;2.16;77.14;102273.66;1818707;77;20965;-82
2020/12/20 03:25:35;;;;;;;36.23;17.00;;;;;;;2.15;77.08;102261.55;1806202;78;21001;-75
2020/12/20 03:28:18;;;;;;;37.73;17.73;;;;;;;2.16;77.05;102264.59;1784101;80;21027;-75
2020/12/20 03:31:02;;;;;;;42.65;20.20;;;;;;;2.12;76.95;102246.04;1764223;80;21007;-74
2020/12/20 03:33:32;;;;;;;37.40;18.92;;;;;;;2.05;76.94;102245.16;1763858;80;20967;-75
2020/12/20 03:36:09;;;;;;;39.95;19.42;;;;;;;2.02;76.88;102243.44;1731115;79;21548;-75
2020/12/20 03:38:38;;;;;;;36.25;17.70;;;;;;;1.98;76.99;102248.17;1790286;80;21090;-75
2020/12/20 03:41:07;;;;;;;39.95;18.90;;;;;;;1.95;76.95;102272.72;1790242;79;21511;-74
2020/12/20 03:43:36;;;;;;;39.70;18.80;;;;;;;1.90;77.34;102297.73;1739642;80;21166;-74
2020/12/20 03:46:04;;;;;;;40.60;19.52;;;;;;;1.82;77.44;102295.13;1790228;79;20974;-74
2020/12/20 03:48:43;;;;;;;36.80;18.32;;;;;;;1.74;77.71;102306.30;1763909;80;20948;-75
2020/12/20 03:51:12;;;;;;;39.08;17.77;;;;;;;1.64;77.88;102321.75;1764239;80;21381;-74
2020/12/20 03:53:42;;;;;;;38.45;20.10;;;;;;;1.58;77.96;102311.81;1763945;80;21571;-74
2020/12/20 03:56:12;;;;;;;36.83;19.02;;;;;;;1.57;78.17;102314.83;1764099;80;22128;-74
2020/12/20 03:58:42;;;;;;;35.95;17.05;;;;;;;1.56;78.37;102313.55;1764214;80;21007;-73
2020/12/20 04:01:09;;;;;;;37.42;18.48;;;;;;;1.56;78.58;102320.02;1790335;80;21023;-75
2020/12/20 04:03:39;;;;;;;34.43;17.05;;;;;;;1.58;78.67;102328.21;1790489;80;21607;-74
2020/12/20 04:06:07;;;;;;;39.75;17.67;;;;;;;1.58;78.66;102328.21;1790891;80;20964;-74
2020/12/20 04:08:35;;;;;;;39.92;17.17;;;;;;;1.60;78.64;102332.08;1792636;79;21161;-74
2020/12/20 04:11:10;;;;;;;33.10;16.95;;;;;;;1.61;78.59;102335.11;1766375;80;20963;-76
2020/12/20 04:13:40;;;;;;;37.63;18.80;;;;;;;1.62;78.60;102331.66;1792663;79;20976;-76
2020/12/20 04:16:09;;;;;;;39.15;18.02;;;;;;;1.66;78.71;102337.28;1792698;79;21034;-75
2020/12/20 04:18:38;;;;;;;39.65;18.85;;;;;;;1.69;78.78;102339.02;1793267;79;21069;-75
2020/12/20 04:21:06;;;;;;;41.00;19.80;;;;;;;1.74;78.73;102342.52;1792780;79;22002;-74
2020/12/20 04:23:35;;;;;;;41.02;19.17;;;;;;;1.77;78.69;102342.52;1792006;79;20959;-75
2020/12/20 04:29:05;;;;;;;42.38;22.27;;;;;;;1.88;78.31;102342.13;1836656;77;28064;-76
2020/12/20 04:31:42;;;;;;;40.00;20.70;;;;;;;1.85;78.08;102342.13;1788232;78;21057;-75
2020/12/20 04:34:10;;;;;;;36.25;18.70;;;;;;;1.84;78.07;102350.72;1788378;78;22126;-74
2020/12/20 04:36:38;;;;;;;39.42;18.95;;;;;;;1.81;78.14;102355.46;1787876;78;20966;-75
2020/12/20 04:39:08;;;;;;;38.02;17.65;;;;;;;1.81;78.31;102353.31;1785801;78;21480;-75
2020/12/20 04:41:36;;;;;;;39.95;18.95;;;;;;;1.84;78.21;102354.61;1788079;78;20947;-76
2020/12/20 04:44:06;;;;;;;40.15;19.90;;;;;;;1.86;78.09;102355.05;1788135;78;20942;-76
2020/12/20 04:46:35;;;;;;;40.90;18.55;;;;;;;1.91;77.96;102360.23;1787977;78;21390;-77
2020/12/20 04:49:05;;;;;;;38.55;17.92;;;;;;;1.91;77.77;102359.37;1778264;78;20942;-76
2020/12/20 04:51:35;;;;;;;38.38;18.98;;;;;;;1.91;77.56;102364.55;1785150;78;21598;-75
2020/12/20 04:54:03;;;;;;;34.92;17.17;;;;;;;1.89;77.54;102369.73;1788134;78;21077;-77
2020/12/20 04:56:35;;;;;;;35.70;20.97;;;;;;;1.87;77.66;102379.21;1788140;78;21001;-76
2020/12/20 04:59:05;;;;;;;37.05;17.67;;;;;;;1.84;77.72;102370.98;1786697;78;21006;-76
2020/12/20 05:01:37;;;;;;;37.03;18.62;;;;;;;1.85;77.80;102373.16;1787764;78;20977;-76
2020/12/20 05:04:07;;;;;;;33.45;17.45;;;;;;;1.86;77.75;102369.70;1762982;78;20969;-76
2020/12/20 05:06:35;;;;;;;37.78;16.67;;;;;;;1.86;77.50;102383.93;1788215;78;21006;-76
2020/12/20 05:09:07;;;;;;;33.92;18.45;;;;;;;1.80;77.33;102377.43;1787590;78;21478;-75
2020/12/20 05:11:41;;;;;;;32.48;16.42;;;;;;;1.77;77.35;102383.89;1819881;78;20935;-77
2020/12/20 05:14:14;;;;;;;37.60;16.62;;;;;;;1.73;77.58;102384.30;1788286;78;20970;-75
2020/12/20 05:16:43;;;;;;;34.53;16.40;;;;;;;1.73;77.73;102388.61;1785921;78;20982;-77
2020/12/20 05:19:16;;;;;;;35.83;16.77;;;;;;;1.72;77.85;102391.63;1787745;78;20998;-74
2020/12/20 05:21:47;;;;;;;41.35;18.70;;;;;;;1.73;77.84;102392.48;1787872;78;20946;-74
2020/12/20 05:24:26;;;;;;;36.60;17.48;;;;;;;1.72;77.79;102394.66;1788119;78;21149;-74
2020/12/20 05:26:55;;;;;;;36.58;17.90;;;;;;;1.74;77.89;102405.87;1788313;78;21009;-74
2020/12/20 05:29:28;;;;;;;38.10;18.98;;;;;;;1.77;77.64;102398.12;1796165;78;20994;-74
2020/12/20 05:31:57;;;;;;;33.95;18.75;;;;;;;1.78;77.65;102399.83;1775505;79;21180;-84
2020/12/20 05:34:42;;;;;;;36.55;20.48;;;;;;;1.82;77.77;102402.87;1736218;81;20956;-82
2020/12/20 05:37:11;;;;;;;34.92;19.55;;;;;;;1.84;77.72;102400.73;1730936;83;21204;-84
2020/12/20 05:39:42;;;;;;;36.83;18.25;;;;;;;1.91;77.53;102414.99;1713520;82;21518;-82
2020/12/20 05:42:19;;;;;;;34.30;16.90;;;;;;;1.89;77.34;102416.70;1734519;81;21466;-83
2020/12/20 05:44:47;;;;;;;37.98;18.87;;;;;;;1.86;77.27;102414.97;1705504;83;20977;-82
2020/12/20 05:47:23;;;;;;;37.20;18.62;;;;;;;1.83;77.36;102413.23;1731200;82;21040;-83
2020/12/20 05:49:51;;;;;;;35.60;18.15;;;;;;;1.83;77.29;102418.84;1705498;83;21410;-82
2020/12/20 05:52:21;;;;;;;35.50;16.67;;;;;;;1.85;77.37;102425.76;1692584;82;20976;-83
2020/12/20 05:54:49;;;;;;;39.15;19.67;;;;;;;1.86;77.39;102424.88;1736254;81;21040;-83
2020/12/20 05:57:20;;;;;;;40.03;19.62;;;;;;;1.84;77.30;102429.18;1717399;81;21525;-84
2020/12/20 05:59:50;;;;;;;33.90;17.70;;;;;;;1.84;77.44;102432.20;1736561;81;21004;-83
2020/12/20 06:02:20;;;;;;;44.05;21.97;;;;;;;1.86;77.42;102431.34;1768322;81;21044;-84
2020/12/20 06:04:48;;;;;;;46.00;22.50;;;;;;;1.90;77.44;102423.63;1736266;81;20980;-84
2020/12/20 06:07:17;;;;;;;46.48;23.42;;;;;;;1.91;77.32;102419.73;1717586;82;21052;-84
2020/12/20 06:09:58;;;;;;;37.75;19.27;;;;;;;1.95;77.17;102421.48;1712230;81;20956;-83
2020/12/20 06:12:30;;;;;;;37.13;19.32;;;;;;;1.97;77.08;102419.77;1717459;82;21028;-84
2020/12/20 06:14:59;;;;;;;38.60;19.45;;;;;;;2.00;77.06;102425.38;1736473;81;21484;-85
2020/12/20 06:17:27;;;;;;;34.15;18.57;;;;;;;1.99;77.08;102427.11;1717510;82;21044;-84
2020/12/20 06:20:04;;;;;;;38.00;20.60;;;;;;;2.01;77.02;102417.64;1762264;80;21055;-84
2020/12/20 06:22:35;;;;;;;37.38;18.45;;;;;;;2.02;76.91;102421.08;1715751;82;20965;-86
2020/12/20 06:25:05;;;;;;;34.58;18.50;;;;;;;1.98;76.84;102424.11;1736511;81;21517;-84
2020/12/20 06:27:35;;;;;;;33.10;17.85;;;;;;;1.93;76.92;102423.19;1717841;82;21185;-84
2020/12/20 06:30:07;;;;;;;35.25;18.15;;;;;;;1.90;76.84;102428.37;1736639;81;20988;-83
2020/12/20 06:32:46;;;;;;;32.80;18.10;;;;;;;1.88;77.04;102424.91;1714543;81;21047;-83
2020/12/20 06:35:27;;;;;;;34.88;16.17;;;;;;;1.89;77.14;102434.81;1727999;81;21006;-80
2020/12/20 06:38:01;;;;;;;33.65;16.77;;;;;;;1.85;77.38;102428.34;1704662;81;21020;-78
2020/12/20 06:40:36;;;;;;;33.08;17.40;;;;;;;1.86;77.55;102424.88;1727871;80;21223;-79
2020/12/20 06:43:03;;;;;;;35.15;18.73;;;;;;;1.90;77.57;102423.63;1728823;81;20953;-77
2020/12/20 06:45:45;;;;;;;37.73;19.40;;;;;;;1.92;77.57;102420.63;1730398;81;20905;-78
2020/12/20 06:48:13;;;;;;;40.80;19.77;;;;;;;1.90;77.44;102423.19;1728829;81;20952;-78
2020/12/20 06:50:49;;;;;;;40.63;19.92;;;;;;;1.90;77.45;102424.48;1728429;80;20953;-80
2020/12/20 06:53:18;;;;;;;36.98;20.17;;;;;;;1.95;77.53;102428.39;1728017;81;21989;-79
2020/12/20 06:55:47;;;;;;;38.02;19.98;;;;;;;2.00;77.41;102421.09;1728078;81;21052;-80
2020/12/20 06:58:19;;;;;;;36.38;19.20;;;;;;;2.02;77.31;102429.73;1727772;81;21370;-80
2020/12/20 07:00:55;;;;;;;32.35;18.30;;;;;;;2.02;77.42;102428.44;1727851;81;20930;-80
2020/12/20 07:03:32;;;;;;;41.35;21.25;;;;;;;2.03;77.38;102428.00;1727666;81;20945;-80
2020/12/20 07:06:11;;;;;;;34.50;18.40;;;;;;;2.04;77.38;102433.59;1727973;81;22202;-80
2020/12/20 07:08:41;;;;;;;35.20;18.60;;;;;;;2.05;77.35;102436.64;1726648;80;21051;-80
2020/12/20 07:11:21;;;;;;;39.73;21.35;;;;;;;2.08;77.34;102435.34;1727703;81;20957;-80
2020/12/20 07:13:51;;;;;;;34.33;18.50;;;;;;;2.07;77.30;102446.14;1727675;81;21083;-80
2020/12/20 07:18:10;;;;;;;32.93;18.30;;;;;;;2.09;77.17;102443.56;1845549;76;23818;-80
2020/12/20 07:20:40;;;;;;;37.33;19.52;;;;;;;2.06;77.20;102445.68;1823317;77;20958;-80
2020/12/20 07:23:10;;;;;;;44.58;20.97;;;;;;;2.12;77.22;102442.27;1783864;80;22456;-81
2020/12/20 07:25:39;;;;;;;39.73;22.93;;;;;;;2.17;77.23;102442.29;1760834;80;21025;-81
2020/12/20 07:28:07;;;;;;;46.20;23.42;;;;;;;2.26;77.00;102437.14;1732858;80;21049;-80
2020/12/20 07:30:35;;;;;;;43.30;23.27;;;;;;;2.33;76.77;102441.48;1787740;79;20963;-82
2020/12/20 07:33:03;;;;;;;52.70;24.67;;;;;;;2.40;76.56;102445.84;1787031;79;21065;-81
2020/12/20 07:35:32;;;;;;;46.15;23.02;;;;;;;2.45;76.22;102442.83;1762112;79;21171;-79
2020/12/20 07:38:00;;;;;;;41.88;21.02;;;;;;;2.46;75.94;102436.78;1780191;77;21173;-84
2020/12/20 07:40:29;;;;;;;38.45;21.87;;;;;;;2.48;76.02;102443.27;1780349;79;21414;-85
2020/12/20 07:43:01;;;;;;;39.90;21.75;;;;;;;2.51;76.06;102445.85;1758957;80;21407;-83
2020/12/20 07:45:29;;;;;;;48.33;24.18;;;;;;;2.55;76.06;102445.01;1758993;80;21009;-86
2020/12/20 07:48:00;;;;;;;45.63;21.85;;;;;;;2.57;75.71;102450.20;1779868;80;21421;-83
2020/12/20 07:50:28;;;;;;;46.23;22.98;;;;;;;2.56;75.50;102454.52;1759802;80;21084;-84
2020/12/20 07:52:58;;;;;;;49.30;24.05;;;;;;;2.53;75.40;102454.93;1761591;79;21013;-84
2020/12/20 07:55:29;;;;;;;40.80;21.90;;;;;;;2.53;75.61;102445.87;1761302;80;20966;-84
2020/12/20 07:58:00;;;;;;;41.30;23.37;;;;;;;2.56;75.54;102440.72;1737298;80;21068;-84
2020/12/20 08:00:29;;;;;;;38.45;22.35;;;;;;;2.64;75.35;102444.17;1782653;79;21281;-83
2020/12/20 08:03:05;;;;;;;40.35;23.18;;;;;;;2.66;75.16;102451.52;1761690;79;20989;-83
2020/12/20 08:05:36;;;;;;;39.98;23.55;;;;;;;2.62;74.93;102452.36;1763293;80;20922;-82
2020/12/20 08:08:04;;;;;;;43.05;23.32;;;;;;;2.59;74.86;102445.89;1761704;80;20938;-83
2020/12/20 08:10:36;;;;;;;40.00;23.55;;;;;;;2.62;74.73;102454.55;1782615;79;20927;-82
2020/12/20 08:13:04;;;;;;;45.10;24.43;;;;;;;2.68;74.55;102445.47;1759855;80;22212;-83
2020/12/20 08:15:36;;;;;;;44.23;24.82;;;;;;;2.75;74.12;102446.78;1758618;80;21392;-85
2020/12/20 08:18:11;;;;;;;37.88;21.97;;;;;;;2.72;73.87;102447.65;1758889;80;20938;-85
2020/12/20 08:20:40;;;;;;;41.53;23.00;;;;;;;2.72;73.70;102439.02;1779663;80;20958;-83
2020/12/20 08:23:10;;;;;;;37.80;21.57;;;;;;;2.74;73.77;102437.30;1758730;80;21045;-85
2020/12/20 08:25:40;;;;;;;38.73;22.75;;;;;;;2.78;73.61;102441.59;1710046;80;21173;-83
2020/12/20 08:28:10;;;;;;;38.90;21.95;;;;;;;2.81;73.47;102437.73;1759709;80;21005;-82
2020/12/20 08:30:43;;;;;;;34.23;20.70;;;;;;;2.85;73.34;102434.30;1757885;80;21033;-82
2020/12/20 08:33:16;;;;;;;41.45;21.90;;;;;;;2.89;73.21;102429.52;1757889;80;21068;-82
2020/12/20 08:36:05;;;;;;;44.93;23.07;;;;;;;2.92;72.98;102425.66;1785335;80;20966;-83
2020/12/20 08:38:45;;;;;;;37.53;22.27;;;;;;;2.93;72.81;102423.92;1755340;80;21251;-84
2020/12/20 08:41:26;;;;;;;40.00;22.05;;;;;;;2.90;72.78;102428.23;1771721;79;20959;-83
2020/12/20 08:44:13;;;;;;;33.38;18.73;;;;;;;2.98;72.73;102426.08;1782111;79;21041;-81
2020/12/20 08:46:48;;;;;;;32.60;20.43;;;;;;;3.03;71.91;102434.30;1738408;81;20988;-83
2020/12/20 08:49:31;;;;;;;35.08;18.52;;;;;;;3.03;71.85;102432.16;1782629;80;20962;-82
2020/12/20 08:52:15;;;;;;;35.05;20.02;;;;;;;3.05;71.83;102433.87;1756475;81;21991;-82
2020/12/20 08:54:55;;;;;;;39.38;19.55;;;;;;;3.09;71.49;102433.42;1756748;81;20985;-80
2020/12/20 08:57:29;;;;;;;36.90;20.25;;;;;;;3.06;70.96;102433.00;1783365;80;21005;-80
2020/12/20 09:00:13;;;;;;;34.73;19.52;;;;;;;3.03;71.23;102436.04;1756163;79;20954;-82
2020/12/20 09:02:42;;;;;;;35.17;19.42;;;;;;;3.01;70.63;102426.10;1755538;81;20914;-81
2020/12/20 09:05:14;;;;;;;33.00;17.20;;;;;;;2.96;70.66;102428.69;1755235;81;21974;-82
2020/12/20 09:07:46;;;;;;;31.62;18.12;;;;;;;2.96;70.56;102435.17;1754902;79;20973;-80
2020/12/20 09:10:27;;;;;;;30.97;17.48;;;;;;;2.99;70.49;102430.42;1783013;79;21017;-83
2020/12/20 09:13:01;;;;;;;31.87;18.42;;;;;;;3.00;70.80;102438.20;1773692;81;21037;-81
2020/12/20 09:15:36;;;;;;;31.50;19.02;;;;;;;3.02;70.89;102435.59;1754744;81;20985;-82
2020/12/20 09:18:25;;;;;;;33.92;19.98;;;;;;;3.06;70.82;102436.88;1731789;81;22127;-80
2020/12/20 09:20:58;;;;;;;32.42;19.80;;;;;;;3.09;70.56;102433.42;1757423;81;21127;-79
2020/12/20 09:23:27;;;;;;;30.68;17.27;;;;;;;3.11;70.60;102439.07;1773820;79;21378;-81
2020/12/20 09:26:02;;;;;;;31.93;18.20;;;;;;;3.13;69.96;102436.45;1754897;80;20940;-82
2020/12/20 09:28:33;;;;;;;31.80;18.20;;;;;;;3.09;70.03;102431.72;1782266;79;20965;-83
2020/12/20 09:31:05;;;;;;;33.70;19.20;;;;;;;3.08;70.27;102427.39;1731569;81;21016;-83
2020/12/20 09:33:38;;;;;;;29.67;16.20;;;;;;;3.09;70.37;102426.54;1755743;80;20966;-82
2020/12/20 09:36:23;;;;;;;32.17;18.25;;;;;;;3.08;70.39;102425.23;1759286;80;20949;-81
2020/12/20 09:39:01;;;;;;;32.48;18.60;;;;;;;3.10;70.11;102424.36;1754996;81;20958;-80
2020/12/20 09:41:35;;;;;;;30.68;17.45;;;;;;;3.11;69.63;102415.74;1782255;80;21402;-82
2020/12/20 09:44:06;;;;;;;31.00;17.60;;;;;;;3.08;69.51;102417.45;1755139;81;21086;-83
2020/12/20 09:46:38;;;;;;;31.93;19.85;;;;;;;3.08;69.45;102412.27;1782172;80;20954;-85
2020/12/20 09:49:11;;;;;;;27.10;16.07;;;;;;;3.08;69.73;102413.13;1756045;81;21057;-90
2020/12/20 09:51:42;;;;;;;31.97;19.48;;;;;;;3.15;69.62;102415.29;1755189;81;20958;-90
2020/12/20 09:54:15;;;;;;;28.52;18.23;;;;;;;3.18;69.65;102410.13;1756082;81;20938;-86
2020/12/20 09:56:44;;;;;;;30.43;17.80;;;;;;;3.19;69.26;102407.95;1782536;79;22480;-84
2020/12/20 09:59:15;;;;;;;31.37;17.80;;;;;;;3.17;69.29;102404.49;1755849;81;21523;-82
2020/12/20 10:01:44;;;;;;;31.60;18.85;;;;;;;3.19;69.35;102406.66;1783030;78;21009;-82
2020/12/20 10:04:14;;;;;;;32.95;18.85;;;;;;;3.27;69.33;102408.81;1745078;77;20939;-85
2020/12/20 10:06:46;;;;;;;30.90;19.10;;;;;;;3.35;68.87;102402.31;1715827;81;21504;-82
2020/12/20 10:09:20;;;;;;;29.15;17.92;;;;;;;3.40;68.81;102404.49;1744786;78;21026;-80
2020/12/20 10:11:51;;;;;;;34.70;19.12;;;;;;;3.43;68.09;102403.62;1728280;81;21022;-80
2020/12/20 10:14:20;;;;;;;27.80;16.80;;;;;;;3.42;67.95;102400.58;1757188;80;20991;-82
2020/12/20 10:16:53;;;;;;;27.37;17.55;;;;;;;3.40;67.90;102399.71;1757563;80;21057;-83
2020/12/20 10:19:22;;;;;;;26.05;17.15;;;;;;;3.44;67.85;102400.14;1755619;80;20991;-81
2020/12/20 10:21:50;;;;;;;26.77;16.73;;;;;;;3.47;67.64;102401.45;1754456;80;20992;-80
2020/12/20 10:24:22;;;;;;;32.80;19.80;;;;;;;3.47;67.44;102397.13;1753982;80;21009;-78
2020/12/20 10:26:54;;;;;;;25.05;17.00;;;;;;;3.49;67.29;102392.80;1753964;80;20959;-82
2020/12/20 10:29:26;;;;;;;28.87;17.07;;;;;;;3.53;67.09;102397.53;1753797;80;20907;-76
2020/12/20 10:31:54;;;;;;;30.40;18.62;;;;;;;3.52;67.12;102399.27;1729257;80;21010;-75
2020/12/20 10:34:22;;;;;;;28.77;17.07;;;;;;;3.58;66.80;102395.81;1754034;80;21649;-76
2020/12/20 10:36:53;;;;;;;27.60;18.17;;;;;;;3.65;66.67;102396.22;1754047;80;21038;-85
2020/12/20 10:39:21;;;;;;;26.80;15.08;;;;;;;3.69;66.59;102397.94;1754283;80;20955;-80
2020/12/20 10:41:52;;;;;;;27.22;17.32;;;;;;;3.70;66.56;102398.36;1754006;80;21503;-81
2020/12/20 10:44:22;;;;;;;26.05;16.12;;;;;;;3.74;66.56;102397.92;1753898;80;21469;-81
2020/12/20 10:46:51;;;;;;;24.87;15.23;;;;;;;3.77;66.36;102397.91;1753916;80;21057;-77
2020/12/20 10:49:21;;;;;;;24.45;15.70;;;;;;;3.75;65.92;102399.64;1729177;80;20971;-76
2020/12/20 10:51:53;;;;;;;28.73;15.68;;;;;;;3.72;66.02;102403.11;1754207;80;21103;-80
2020/12/20 10:54:22;;;;;;;24.63;15.00;;;;;;;3.69;65.97;102410.03;1729519;80;21076;-79
2020/12/20 10:56:55;;;;;;;25.65;16.30;;;;;;;3.63;65.77;102408.77;1753713;80;20983;-78
2020/12/20 10:59:30;;;;;;;26.60;16.82;;;;;;;3.59;66.03;102402.71;1753890;80;21164;-78
2020/12/20 11:02:00;;;;;;;27.00;17.15;;;;;;;3.57;66.39;102402.28;1731175;80;21062;-84
2020/12/20 11:04:30;;;;;;;23.92;16.07;;;;;;;3.58;66.35;102403.59;1754383;80;21412;-83
2020/12/20 11:07:00;;;;;;;29.42;18.17;;;;;;;3.61;66.26;102400.98;1754002;80;21543;-85
2020/12/20 11:09:34;;;;;;;28.05;17.90;;;;;;;3.59;65.88;102408.34;1729839;80;21055;-87
2020/12/20 11:12:33;;;;;;;29.95;18.30;;;;;;;3.58;66.09;102401.41;1782221;80;21038;-85
2020/12/20 11:15:49;;;;;;;27.82;16.75;;;;;;;3.56;65.96;102401.43;1820460;77;23360;-87
2020/12/20 11:18:29;;;;;;;31.30;16.35;;;;;;;3.47;65.87;102398.42;1755428;81;21491;-87
2020/12/20 11:21:06;;;;;;;25.65;16.15;;;;;;;3.39;65.88;102393.67;1693257;81;20910;-86
2020/12/20 11:23:43;;;;;;;24.75;16.75;;;;;;;3.29;66.21;102401.02;1766508;81;20982;-83
2020/12/20 11:30:08;;;;;;;28.45;17.12;;;;;;;3.15;66.62;102371.22;1772366;80;27873;-79
2020/12/20 11:32:52;;;;;;;;;;;;;;;;;;;;;
2020/12/20 11:35:38;;;;;;;24.18;15.30;;;;;;;3.37;66.79;102402.32;1708440;82;21861;-79
2020/12/20 11:38:24;;;;;;;26.02;16.87;;;;;;;3.42;66.53;102402.73;1737861;80;21053;-78
2020/12/20 11:40:59;;;;;;;25.68;15.48;;;;;;;3.47;66.35;102399.72;1789190;79;20913;-80
2020/12/20 11:43:32;;;;;;;26.00;16.12;;;;;;;3.51;66.05;102396.25;1682140;82;21106;-82
2020/12/20 11:46:04;;;;;;;26.20;16.20;;;;;;;3.48;65.86;102406.62;1761107;80;21009;-79
2020/12/20 11:48:41;;;;;;;24.07;15.83;;;;;;;3.43;66.12;102409.66;1789258;80;21159;-78